Latest Weather Observations for Maatsuyker Island

IDT60801

Issued at 8:01 pm EST Monday 22 April 2019 (issued every 10 minutes, with the page automatically refreshed every 10 minutes)

About weather observations | Map of weather stations | Latest weather observations for TAS | Other Formats
Station Details ID: 094041 Name: MAATSUYKER ISLAND LIGHTHOUSE Lat: -43.66 Lon: 146.27 Height: 146.5 m
Data from the previous 72 hours. | See also: Recent months at Maatsuyker Island
Date/Time
EST
Temp
°C
App
Temp
°C
Dew
Point
°C
Rel
Hum
%
Delta-T
°C
Wind Press
QNH
hPa
Press
MSL
hPa
Rain since
9am
mm
Dir  Spd
km/h
Gust
km/h
Spd
kts
Gust
kts
22/08:00pm 12.3 5.5 7.8 74 2.2 NNW 33 43 18 23 1025.2 - 0.0
22/07:30pm 12.5 3.8 7.8 73 2.3 NW 43 52 23 28 1024.8 - 0.0
22/07:00pm 12.5 3.3 8.0 74 2.2 NW 46 57 25 31 1024.4 - 0.0
22/06:30pm 12.6 3.0 7.9 73 2.3 NW 48 61 26 33 1024.1 - 0.0
22/06:00pm 12.5 0.6 7.2 70 2.6 NW 59 69 32 37 1023.2 1023.3 0.0
22/05:30pm 12.8 1.4 9.1 78 1.9 NW 59 69 32 37 1023.0 - 0.0
22/05:00pm 12.6 2.9 9.1 79 1.8 NW 50 57 27 31 1022.9 - 0.0
22/04:30pm 12.5 1.8 8.0 74 2.2 NW 54 61 29 33 1022.4 - 0.0
22/04:00pm 12.5 1.6 7.4 71 2.5 NW 54 63 29 34 1022.2 - 0.0
22/03:30pm 12.8 1.6 7.5 70 2.6 NW 56 69 30 37 1021.5 - 0.0
22/03:00pm 12.6 1.0 8.3 75 2.1 NW 59 69 32 37 1021.7 1021.8 0.0
22/02:30pm 12.7 1.5 8.4 75 2.2 NW 57 69 31 37 1021.2 - 0.0
22/02:00pm 13.0 1.9 7.9 71 2.5 NW 56 63 30 34 1021.2 - 0.0
22/01:30pm 12.8 0.3 7.7 71 2.5 NW 63 72 34 39 1021.2 - 0.0
22/01:00pm 12.5 0.2 8.6 77 2.0 NW 63 70 34 38 1021.2 - 0.0
22/12:30pm 12.5 0.8 9.5 82 1.5 NW 61 70 33 38 1021.4 - 0.0
22/12:00pm 12.7 0.1 7.4 70 2.6 NW 63 72 34 39 1021.0 1021.1 0.0
22/11:30am 12.8 -0.5 7.5 70 2.6 NW 67 72 36 39 1020.9 - 0.0
22/11:00am 13.1 2.1 9.0 76 2.1 NW 57 67 31 36 1021.2 - 0.0
22/10:30am 12.4 -0.9 7.7 73 2.3 NW 67 76 36 41 1020.7 - 0.0
22/10:00am 12.4 -0.9 7.5 72 2.4 NW 67 76 36 41 1020.1 - 0.0
22/09:30am 12.4 0.3 7.9 74 2.2 NW 61 74 33 40 1020.0 - 0.0
22/09:00am 12.3 1.2 7.8 74 2.2 NW 56 67 30 36 1019.8 1019.8 1.4
22/08:30am 12.1 2.6 8.4 78 1.8 NW 48 57 26 31 1020.2 - 1.4
22/08:07am 11.9 2.8 8.4 79 1.7 NW 46 65 25 35 1020.5 - 1.4
22/08:00am 12.2 1.9 8.3 77 1.9 NW 52 65 28 35 1020.0 - 1.4
22/07:30am 11.9 3.1 8.2 78 1.8 NW 44 57 24 31 1019.6 - 1.4
22/07:00am 12.0 1.3 7.9 76 2.0 NW 54 63 29 34 1019.0 - 1.4
22/06:30am 11.9 0.6 7.8 76 2.0 NW 57 67 31 36 1018.5 - 1.4
22/06:00am 11.9 0.2 8.0 77 1.9 NW 59 69 32 37 1018.3 1018.3 1.4
22/05:30am 11.6 -0.4 8.3 80 1.6 NW 61 70 33 38 1018.0 - 1.4
22/05:10am 11.6 -1.8 8.5 81 1.5 NW 69 72 37 39 1017.8 - 1.4
22/05:00am 11.4 2.4 9.0 85 1.2 NW 46 57 25 31 1018.3 - 1.4
22/04:30am 10.9 0.2 8.1 83 1.4 NW 54 63 29 34 1018.1 - 1.4
22/04:24am 11.0 0.9 8.8 86 1.1 NW 52 57 28 31 1017.9 - 1.4
22/04:03am 11.1 -2.8 9.0 87 1.1 NW 72 80 39 43 1017.8 - 1.0
22/04:01am 11.3 0.9 9.2 87 1.1 NW 54 80 29 43 1017.9 - 1.0
22/04:00am 11.1 0.6 8.7 85 1.2 NW 54 65 29 35 1018.0 - 1.0
22/03:51am 10.4 -2.3 8.3 87 1.0 NW 65 83 35 45 1017.9 - 1.0
22/03:30am 11.0 -1.8 9.6 91 0.7 NW 67 78 36 42 1017.5 - 1.0
22/03:00am 11.6 -1.7 9.7 88 1.0 NW 70 83 38 45 1016.9 1016.9 1.0
22/02:30am 11.4 -0.1 10.1 92 0.7 NW 61 74 33 40 1016.9 - 1.0
22/02:00am 11.6 1.0 10.0 90 0.8 NW 56 67 30 36 1016.7 - 0.8
22/01:30am 12.2 1.5 10.4 89 0.9 NW 57 69 31 37 1016.4 - 0.6
22/01:00am 12.1 -0.1 10.2 88 1.0 NW 65 80 35 43 1015.8 - 0.6
22/12:30am 12.6 0.5 10.7 88 1.0 NW 65 80 35 43 1016.0 - 0.4
22/12:00am 13.5 3.7 11.4 87 1.1 NW 54 65 29 35 1016.0 1016.1 0.2
 
Date/Time
EST
Temp
°C
App
Temp
°C
Dew
Point
°C
Rel
Hum
%
Delta-T
°C
Wind Press
QNH
hPa
Press
MSL
hPa
Rain since
9am
mm
Dir  Spd
km/h
Gust
km/h
Spd
kts
Gust
kts
21/11:32pm 13.9 5.5 11.2 84 1.4 NNW 46 65 25 35 1016.1 - 0.2
21/11:30pm 13.8 4.7 11.1 84 1.4 NNW 50 67 27 36 1015.9 - 0.2
21/11:00pm 14.3 4.3 10.9 80 1.8 NNW 54 67 29 36 1015.3 - 0.0
21/10:30pm 15.1 6.7 12.2 83 1.6 NW 48 61 26 33 1015.4 - 0.0
21/10:00pm 15.6 7.3 12.7 83 1.6 NW 48 61 26 33 1015.4 - 0.0
21/09:30pm 15.9 6.6 13.0 83 1.6 NW 54 63 29 34 1015.0 - 0.0
21/09:00pm 16.3 6.8 12.3 77 2.2 NW 54 70 29 38 1014.6 1014.6 0.0
21/08:30pm 16.0 6.9 12.6 80 1.9 NNW 52 61 28 33 1014.8 - 0.0
21/08:00pm 16.3 6.7 13.2 82 1.7 NW 56 72 30 39 1014.4 - 0.0
21/07:49pm 16.7 8.1 13.0 79 2.1 NW 50 70 27 38 1014.1 - 0.0
21/07:30pm 16.9 7.6 13.0 78 2.2 NW 54 67 29 36 1014.0 - 0.0
21/07:08pm 18.0 8.2 12.7 71 3.0 NW 56 74 30 40 1013.9 - 0.0
21/07:00pm 18.1 9.5 12.8 71 3.0 NW 50 57 27 31 1014.3 - 0.0
21/06:30pm 19.5 14.0 12.3 63 4.0 NNW 33 46 18 25 1014.2 - 0.0
21/06:00pm 19.8 13.2 12.6 63 4.1 NNW 39 54 21 29 1013.6 1013.6 0.0
21/05:30pm 19.4 13.3 12.9 66 3.7 NNW 37 46 20 25 1013.2 - 0.0
21/05:00pm 19.0 13.3 13.0 68 3.4 NW 35 48 19 26 1013.1 - 0.0
21/04:57pm 18.9 13.6 12.6 67 3.5 NW 32 46 17 25 1013.3 - 0.0
21/04:30pm 20.6 17.5 11.5 56 5.1 NNW 19 26 10 14 1013.5 - 0.0
21/04:00pm 23.4 20.2 10.1 43 7.3 N 17 20 9 11 1013.2 - 0.0
21/03:30pm 22.9 19.5 10.7 46 6.8 N 19 24 10 13 1013.3 - 0.0
21/03:00pm 22.9 19.6 11.0 47 6.6 N 19 26 10 14 1013.3 1013.3 0.0
21/02:30pm 24.9 19.4 9.2 37 8.6 N 28 41 15 22 1013.0 - 0.0
21/02:00pm 24.5 18.3 9.3 38 8.3 N 32 41 17 22 1013.1 - 0.0
21/01:30pm 24.3 17.5 9.1 38 8.3 NNW 35 48 19 26 1013.2 - 0.0
21/01:00pm 23.8 19.1 9.4 40 7.9 N 24 33 13 18 1013.6 - 0.0
21/12:30pm 24.5 19.1 8.0 35 8.8 N 26 39 14 21 1013.7 - 0.0
21/12:00pm 24.4 20.1 8.0 35 8.8 N 20 32 11 17 1014.2 1014.2 0.0
21/11:30am 24.0 18.9 7.6 35 8.7 N 24 35 13 19 1014.4 - 0.0
21/11:00am 23.3 18.7 6.6 34 8.6 N 20 30 11 16 1014.6 - 0.0
21/10:30am 23.2 17.5 6.5 34 8.6 NNW 26 35 14 19 1014.6 - 0.0
21/10:00am 22.6 16.7 6.0 34 8.5 N 26 37 14 20 1014.6 - 0.0
21/09:30am 22.1 16.5 5.5 34 8.4 N 24 32 13 17 1014.9 - 0.0
21/09:00am 21.5 15.7 4.6 33 8.3 N 24 32 13 17 1015.1 1015.2 0.0
21/08:30am 21.0 14.7 3.7 32 8.3 N 26 33 14 18 1015.3 - 0.0
21/08:00am 20.4 13.4 4.0 34 7.9 N 30 37 16 20 1015.3 - 0.0
21/07:30am 19.9 14.0 4.0 35 7.7 N 24 33 13 18 1015.2 - 0.0
21/07:00am 19.8 13.9 3.9 35 7.6 N 24 35 13 19 1015.2 - 0.0
21/06:30am 19.5 13.4 4.8 38 7.2 N 26 32 14 17 1015.0 - 0.0
21/06:00am 19.4 13.0 5.1 39 7.0 N 28 39 15 21 1014.9 1015.0 0.0
21/05:30am 19.6 12.2 4.9 38 7.2 N 33 43 18 23 1014.8 - 0.0
21/05:00am 19.0 14.2 5.5 41 6.7 N 20 33 11 18 1015.2 - 0.0
21/04:30am 19.3 13.5 6.1 42 6.6 N 26 35 14 19 1015.0 - 0.0
21/04:00am 18.1 13.2 6.9 48 5.6 N 22 30 12 16 1015.2 - 0.0
21/03:30am 18.8 14.8 6.6 45 6.1 N 17 20 9 11 1015.3 - 0.0
21/03:00am 19.1 14.8 6.9 45 6.2 N 19 20 10 11 1015.6 1015.7 0.0
21/02:30am 18.7 15.1 6.9 46 6.0 N 15 20 8 11 1015.8 - 0.0
21/02:00am 20.0 16.2 5.6 39 7.2 N 15 19 8 10 1016.0 - 0.0
21/01:30am 19.4 15.0 6.5 43 6.5 N 19 20 10 11 1016.4 - 0.0
21/01:00am 19.0 14.5 6.8 45 6.2 N 20 22 11 12 1016.7 - 0.0
21/12:30am 19.0 15.6 6.1 43 6.4 N 13 19 7 10 1017.0 - 0.0
21/12:00am 18.7 14.4 6.9 46 6.0 N 19 20 10 11 1017.3 1017.3 0.0
 
Date/Time
EST
Temp
°C
App
Temp
°C
Dew
Point
°C
Rel
Hum
%
Delta-T
°C
Wind Press
QNH
hPa
Press
MSL
hPa
Rain since
9am
mm
Dir  Spd
km/h
Gust
km/h
Spd
kts
Gust
kts
20/11:30pm 19.1 14.3 7.5 47 5.9 N 22 26 12 14 1017.5 - 0.0
20/11:00pm 19.2 15.0 7.3 46 6.1 N 19 24 10 13 1017.8 - 0.0
20/10:30pm 19.3 15.2 6.1 42 6.6 N 17 20 9 11 1018.1 - 0.0
20/10:00pm 20.7 16.7 3.0 31 8.4 NE 13 17 7 9 1018.4 - 0.0
20/09:30pm 20.0 15.4 3.7 34 7.8 NE 17 20 9 11 1018.6 - 0.0
20/09:00pm 19.6 14.8 4.5 37 7.3 N 19 24 10 13 1018.8 1018.8 0.0
20/08:30pm 20.0 15.0 4.5 36 7.5 NNE 20 24 11 13 1018.9 - 0.0
20/08:00pm 19.9 15.1 4.4 36 7.5 NE 19 20 10 11 1019.3 - 0.0
20/07:30pm 20.2 15.6 3.9 34 7.8 NE 17 19 9 10 1019.6 - 0.0
20/07:00pm 20.6 16.2 0.4 26 9.1 NE 13 19 7 10 1019.9 - 0.0
20/06:30pm 20.4 15.7 -4.7 18 10.2 NNE 11 19 6 10 1019.7 - 0.0
20/05:30pm 20.3 14.3 -6.3 16 10.5 ENE 17 24 9 13 1019.6 - 0.0
20/05:00pm 20.4 14.2 -4.7 18 10.2 ENE 19 24 10 13 1019.8 - 0.0
20/04:30pm 20.5 15.9 -0.7 24 9.3 NNE 13 19 7 10 1019.9 - 0.0
20/04:00pm 20.7 16.2 -0.6 24 9.4 NE 13 17 7 9 1020.3 - 0.0
20/03:30pm 22.2 20.8 5.6 34 8.4 NNW 2 9 1 5 1020.6 - 0.0
20/03:00pm 21.7 19.1 4.3 32 8.5 N 7 15 4 8 1020.8 1020.9 0.0
20/02:30pm 21.6 19.4 5.1 34 8.2 N 6 11 3 6 1021.0 - 0.0
20/02:00pm 21.9 19.4 4.5 32 8.6 N 7 13 4 7 1021.1 - 0.0
20/01:30pm 21.6 18.9 3.8 31 8.6 N 7 13 4 7 1021.3 - 0.0
20/01:00pm 19.6 18.0 8.0 47 6.0 N 6 9 3 5 1021.7 - 0.0
20/12:30pm 18.0 17.6 9.9 59 4.3 NNW 2 7 1 4 1022.1 - 0.0
20/11:30am 17.2 15.6 6.4 49 5.3 E 4 9 2 5 1022.9 - 0.0
20/11:00am 15.1 14.3 8.1 63 3.5 E 2 7 1 4 1023.2 - 0.0
20/10:30am 14.4 12.3 6.5 59 3.8 SE 7 9 4 5 1023.6 - 0.0
20/10:00am 15.2 12.5 5.7 53 4.6 E 9 13 5 7 1023.9 - 0.0
20/09:30am 15.0 12.8 5.5 53 4.5 W 6 11 3 6 1024.1 - 0.0
20/09:00am 14.7 12.7 6.3 57 4.1 NW 6 9 3 5 1024.3 1024.3 0.2
20/08:30am 13.5 12.2 6.1 61 3.5 SW 2 7 1 4 1024.4 - 0.2
20/08:00am 12.6 10.9 6.0 64 3.1 W 4 7 2 4 1024.4 - 0.2
20/07:30am 13.7 12.2 5.1 56 4.0 NNE 2 6 1 3 1024.6 - 0.2
20/07:00am 12.5 10.7 5.2 61 3.4 NNE 4 7 2 4 1024.6 - 0.2
20/06:30am 11.8 9.1 5.7 66 2.9 N 9 11 5 6 1024.5 - 0.2
20/06:00am 11.6 8.9 5.7 67 2.7 N 9 11 5 6 1024.6 1024.6 0.2
20/05:30am 13.3 11.8 5.2 58 3.8 ENE 2 6 1 3 1024.4 - 0.2
20/05:00am 12.3 9.5 5.2 62 3.3 N 9 9 5 5 1024.4 - 0.2
20/04:30am 11.1 6.8 7.0 76 2.0 N 19 20 10 11 1024.7 - 0.2
20/04:00am 11.9 8.3 5.1 63 3.1 N 13 17 7 9 1024.7 - 0.2
20/03:30am 11.4 8.6 5.1 65 2.9 N 9 13 5 7 1024.7 - 0.2
20/03:00am 12.3 11.1 4.8 60 3.4 CALM 0 7 0 4 1024.9 1024.9 0.2
20/02:30am 12.5 10.2 5.0 60 3.5 NNW 6 7 3 4 1025.3 - 0.2
20/02:00am 13.2 12.1 4.9 57 3.9 CALM 0 0 0 0 1025.6 - 0.2
20/01:30am 12.1 11.1 5.7 65 3.0 CALM 0 4 0 2 1025.9 - 0.2
20/01:00am 11.1 9.2 7.4 78 1.8 N 7 11 4 6 1026.3 - 0.2
20/12:30am 12.3 11.3 5.7 64 3.1 CALM 0 0 0 0 1026.2 - 0.2
20/12:00am 11.9 10.6 5.8 66 2.9 NNE 2 7 1 4 1026.3 1026.4 0.2
 
Date/Time
EST
Temp
°C
App
Temp
°C
Dew
Point
°C
Rel
Hum
%
Delta-T
°C
Wind Press
QNH
hPa
Press
MSL
hPa
Rain since
9am
mm
Dir  Spd
km/h
Gust
km/h
Spd
kts
Gust
kts
19/11:30pm 11.7 11.3 8.4 80 1.6 CALM 0 0 0 0 1026.7 - 0.2
19/11:00pm 11.5 10.9 7.4 76 2.0 CALM 0 0 0 0 1026.9 - 0.2
19/10:30pm 11.9 10.5 7.4 74 2.2 NNE 4 9 2 5 1027.0 - 0.2
19/10:00pm 12.4 10.5 7.7 73 2.3 NE 7 13 4 7 1027.3 - 0.2
19/09:30pm 12.6 10.5 6.0 64 3.1 NE 6 13 3 7 1027.3 - 0.2
19/09:00pm 11.9 9.2 5.8 66 2.8 NE 9 13 5 7 1027.6 1027.7 0.2
19/08:30pm 11.6 10.4 6.5 71 2.4 N 2 7 1 4 1027.7 - 0.2

Other formats

Comma delimited format used in spreadsheet applications
http://www.bom.gov.au/fwo/IDT60801/IDT60801.94962.axf

JavaScript Object Notation format (JSON) in row-major order
http://www.bom.gov.au/fwo/IDT60801/IDT60801.94962.json

Data quality

Most of these data are generated automatically and are frequently updated. Quality checks on data are not normally performed. It is possible for incorrect values to appear. Refer to information at About Latest Weather Observations and please check the disclaimer before using these data.